Time;durP1;ratioP1;P1;durP2;ratioP2;P2;SDS_P1;SDS_P2;PMS_P1;PMS_P2;Temp;Humidity;BMP_temperature;BMP_pressure;BME280_temperature;BME280_humidity;BME280_pressure;Samples;Min_cycle;Max_cycle;Signal;HPM_P1;HPM_P2
2023/01/09 00:01:02;0.00;0.00;0.62;0.00;0.00;0.62;1.30;0.70;;;25.20;28.40;;;;;;2256229;61;20362;-60
2023/01/09 00:03:46;0.00;0.00;0.62;0.00;0.00;0.62;1.43;0.80;;;25.20;28.40;;;;;;2255944;61;20369;-61
2023/01/09 00:06:31;0.00;0.00;0.62;0.00;0.00;0.62;1.77;0.90;;;25.20;28.40;;;;;;2256459;61;20409;-59
2023/01/09 00:09:17;0.00;0.00;0.62;0.00;0.00;0.62;1.30;0.70;;;25.20;28.40;;;;;;2256665;61;20435;-60
2023/01/09 00:12:02;0.00;0.00;0.62;0.00;0.00;0.62;1.30;0.70;;;25.20;28.40;;;;;;2256021;61;20387;-61
2023/01/09 00:14:46;0.00;0.00;0.62;0.00;0.00;0.62;1.40;0.70;;;25.20;28.30;;;;;;2255972;61;20432;-61
2023/01/09 00:17:31;0.00;0.00;0.62;0.00;0.00;0.62;1.50;0.90;;;25.20;28.30;;;;;;2256561;61;20357;-61
2023/01/09 00:20:16;0.00;0.00;0.62;0.00;0.00;0.62;2.27;1.20;;;25.20;28.30;;;;;;2256073;61;20854;-60
2023/01/09 00:23:01;0.00;0.00;0.62;0.00;0.00;0.62;1.80;1.10;;;25.20;28.30;;;;;;2255760;61;20791;-61
2023/01/09 00:25:47;0.00;0.00;0.62;0.00;0.00;0.62;1.77;1.03;;;25.20;28.30;;;;;;2256601;61;20365;-61
2023/01/09 00:28:33;0.00;0.00;0.62;0.00;0.00;0.62;2.13;1.10;;;25.20;28.30;;;;;;2256437;61;20482;-61
2023/01/09 00:31:19;0.00;0.00;0.62;0.00;0.00;0.62;2.87;1.00;;;25.20;28.30;;;;;;2255632;61;20389;-62
2023/01/09 00:34:06;0.00;0.00;0.62;0.00;0.00;0.62;2.30;1.10;;;25.10;28.30;;;;;;2255988;61;20357;-60
2023/01/09 00:36:55;0.00;0.00;0.62;0.00;0.00;0.62;2.60;1.27;;;25.20;28.40;;;;;;2256186;61;20458;-60
2023/01/09 00:39:40;0.00;0.00;0.62;0.00;0.00;0.62;1.73;1.17;;;25.20;28.40;;;;;;2256506;61;20361;-60
2023/01/09 00:42:32;0.00;0.00;0.62;0.00;0.00;0.62;1.60;1.10;;;25.20;28.40;;;;;;2255694;61;20946;-61
2023/01/09 00:45:22;0.00;0.00;0.62;0.00;0.00;0.62;1.60;0.93;;;25.10;28.30;;;;;;2256208;61;20370;-60
2023/01/09 00:48:10;0.00;0.00;0.62;0.00;0.00;0.62;1.40;0.83;;;25.10;28.30;;;;;;2256252;61;20406;-60
2023/01/09 00:50:58;0.00;0.00;0.62;0.00;0.00;0.62;1.43;0.83;;;25.10;28.30;;;;;;2255787;61;20366;-61
2023/01/09 00:53:43;0.00;0.00;0.62;0.00;0.00;0.62;1.70;1.00;;;25.10;28.30;;;;;;2256408;61;20366;-61
2023/01/09 00:56:28;0.00;0.00;0.62;0.00;0.00;0.62;1.40;0.80;;;25.10;28.40;;;;;;2255851;61;20526;-60
2023/01/09 00:59:15;0.00;0.00;0.62;0.00;0.00;0.62;3.17;1.00;;;25.10;28.40;;;;;;2256189;61;20393;-61
2023/01/09 01:01:59;0.00;0.00;0.62;0.00;0.00;0.62;2.27;0.80;;;25.10;28.40;;;;;;2256471;61;20925;-61
2023/01/09 01:07:48;0.00;0.00;0.62;0.00;0.00;0.62;2.10;1.10;;;25.10;28.40;;;;;;2255975;61;20424;-60
2023/01/09 01:10:35;0.00;0.00;0.62;0.00;0.00;0.62;2.13;0.90;;;25.10;28.40;;;;;;2255877;61;20370;-60
2023/01/09 01:13:20;0.00;0.00;0.62;0.00;0.00;0.62;2.70;1.00;;;25.10;28.40;;;;;;2255870;61;20440;-60
2023/01/09 01:16:07;0.00;0.00;0.62;0.00;0.00;0.62;1.63;0.90;;;25.00;28.40;;;;;;2256420;61;20473;-60
2023/01/09 01:18:52;0.00;0.00;0.62;0.00;0.00;0.62;1.87;0.80;;;25.10;28.50;;;;;;2255619;61;20358;-56
2023/01/09 01:21:37;0.00;0.00;0.62;0.00;0.00;0.62;1.70;1.00;;;25.00;28.40;;;;;;2255452;61;20432;-57
2023/01/09 01:24:22;0.00;0.00;0.62;0.00;0.00;0.62;1.93;1.00;;;25.10;28.50;;;;;;2252914;61;20402;-60
2023/01/09 01:27:07;0.00;0.00;0.62;0.00;0.00;0.62;2.43;0.90;;;25.10;28.50;;;;;;2251069;61;20428;-60
2023/01/09 01:29:51;0.00;0.00;0.62;0.00;0.00;0.62;4.13;0.87;;;25.00;28.50;;;;;;2251064;61;20495;-61
2023/01/09 01:32:38;0.00;0.00;0.62;0.00;0.00;0.62;2.10;1.10;;;25.00;28.40;;;;;;2251064;61;20427;-63
2023/01/09 01:35:25;0.00;0.00;0.62;0.00;0.00;0.62;1.43;0.90;;;25.00;28.50;;;;;;2251116;61;20375;-64
2023/01/09 01:38:10;0.00;0.00;0.62;0.00;0.00;0.62;1.60;0.80;;;25.00;28.50;;;;;;2251489;61;20403;-64
2023/01/09 01:40:55;0.00;0.00;0.62;0.00;0.00;0.62;1.60;0.93;;;25.00;28.50;;;;;;2251076;61;20798;-62
2023/01/09 01:43:52;0.00;0.00;0.62;0.00;0.00;0.62;2.30;1.20;;;25.00;28.40;;;;;;2251009;61;20363;-63
2023/01/09 01:46:37;0.00;0.00;0.62;0.00;0.00;0.62;1.80;1.00;;;25.00;28.40;;;;;;2251674;61;20428;-62
2023/01/09 01:49:23;0.00;0.00;0.62;0.00;0.00;0.62;2.20;1.20;;;25.00;28.30;;;;;;2250836;61;20442;-62
2023/01/09 01:52:08;0.00;0.00;0.62;0.00;0.00;0.62;1.30;0.70;;;25.00;28.30;;;;;;2251372;61;20433;-61
2023/01/09 01:54:54;0.00;0.00;0.62;0.00;0.00;0.62;1.63;1.00;;;24.90;28.70;;;;;;2251340;61;20642;-63
2023/01/09 01:57:43;0.00;0.00;0.62;0.00;0.00;0.62;1.73;0.80;;;24.90;28.10;;;;;;2251373;61;20362;-62
2023/01/09 02:00:35;0.00;0.00;0.62;0.00;0.00;0.62;1.87;1.00;;;24.90;28.10;;;;;;2251194;61;20964;-62
2023/01/09 02:03:24;0.00;0.00;0.62;0.00;0.00;0.62;1.40;0.80;;;24.90;28.10;;;;;;2250339;61;20366;-62
2023/01/09 02:06:12;0.00;0.00;0.62;0.00;0.00;0.62;2.03;1.10;;;24.80;27.90;;;;;;2251137;61;20359;-63
2023/01/09 02:08:57;0.00;0.00;0.62;0.00;0.00;0.62;1.53;0.80;;;24.80;27.90;;;;;;2251690;61;20433;-63
2023/01/09 02:11:45;0.00;0.00;0.62;0.00;0.00;0.62;1.60;0.80;;;24.80;27.90;;;;;;2250949;61;20985;-63
2023/01/09 02:14:31;0.00;0.00;0.62;0.00;0.00;0.62;2.40;1.10;;;24.70;27.80;;;;;;2250979;61;20514;-62
2023/01/09 02:17:29;0.00;0.00;0.62;0.00;0.00;0.62;1.60;0.90;;;24.70;27.80;;;;;;2251026;61;20367;-63
2023/01/09 02:20:38;0.00;0.00;0.62;0.00;0.00;0.62;1.70;1.03;;;24.70;27.80;;;;;;2250813;61;20363;-62
2023/01/09 02:24:18;0.00;0.00;0.62;0.00;0.00;0.62;1.50;0.90;;;24.60;27.80;;;;;;2251622;61;20387;-63
2023/01/09 02:27:41;0.00;0.00;0.62;0.00;0.00;0.62;1.80;0.87;;;24.60;28.30;;;;;;2251321;61;20918;-63
2023/01/09 02:30:38;0.00;0.00;0.62;0.00;0.00;0.62;1.60;0.97;;;24.60;27.80;;;;;;2248125;61;20467;-63
2023/01/09 02:33:41;0.00;0.00;0.62;0.00;0.00;0.62;1.73;1.00;;;24.50;27.80;;;;;;2250719;61;20366;-63
2023/01/09 02:36:33;0.00;0.00;0.62;0.00;0.00;0.62;1.50;0.97;;;24.50;27.80;;;;;;2250701;61;20370;-62
2023/01/09 02:39:25;0.00;0.00;0.62;0.00;0.00;0.62;1.50;0.90;;;24.50;27.80;;;;;;2250822;61;20359;-62
2023/01/09 02:42:14;0.00;0.00;0.62;0.00;0.00;0.62;1.30;0.80;;;24.50;27.80;;;;;;2251040;61;20386;-61
2023/01/09 02:44:58;0.00;0.00;0.62;0.00;0.00;0.62;1.37;0.80;;;24.40;27.70;;;;;;2251352;61;20382;-62
2023/01/09 02:47:46;0.00;0.00;0.62;0.00;0.00;0.62;1.33;0.80;;;24.40;27.70;;;;;;2250947;61;20949;-63
2023/01/09 02:50:38;0.00;0.00;0.62;0.00;0.00;0.62;1.80;1.00;;;24.40;27.70;;;;;;2251164;61;20409;-62
2023/01/09 02:54:02;0.00;0.00;0.62;0.00;0.00;0.62;2.10;1.10;;;24.40;27.70;;;;;;2251274;61;20433;-62
2023/01/09 02:57:06;0.00;0.00;0.62;0.00;0.00;0.62;2.10;1.10;;;24.30;27.70;;;;;;2251361;61;20398;-62
2023/01/09 03:00:09;0.00;0.00;0.62;0.00;0.00;0.62;1.53;0.80;;;24.30;27.70;;;;;;2251351;61;20369;-61
2023/01/09 03:03:06;0.00;0.00;0.62;0.00;0.00;0.62;1.67;0.90;;;24.30;27.60;;;;;;2251302;61;20822;-60
2023/01/09 03:05:56;0.00;0.00;0.62;0.00;0.00;0.62;1.50;0.83;;;24.20;27.60;;;;;;2251619;61;20398;-58
2023/01/09 03:08:45;0.00;0.00;0.62;0.00;0.00;0.62;1.70;1.10;;;24.20;27.60;;;;;;2251961;61;20386;-58
2023/01/09 03:11:37;0.00;0.00;0.62;0.00;0.00;0.62;1.60;0.87;;;24.20;27.60;;;;;;2251715;61;20434;-60
2023/01/09 03:14:25;0.00;0.00;0.62;0.00;0.00;0.62;1.70;1.10;;;24.10;27.50;;;;;;2251903;61;20430;-60
2023/01/09 03:17:13;0.00;0.00;0.62;0.00;0.00;0.62;1.70;1.00;;;24.10;27.50;;;;;;2251764;61;20394;-56
2023/01/09 03:20:01;0.00;0.00;0.62;0.00;0.00;0.62;1.87;0.93;;;24.10;27.50;;;;;;2251576;61;20438;-57
2023/01/09 03:22:54;0.00;0.00;0.62;0.00;0.00;0.62;1.60;0.90;;;24.00;27.40;;;;;;2251892;61;20382;-60
2023/01/09 03:25:39;0.00;0.00;0.62;0.00;0.00;0.62;1.60;0.80;;;24.00;27.50;;;;;;2251250;61;20362;-57
2023/01/09 03:28:28;0.00;0.00;0.62;0.00;0.00;0.62;1.43;0.80;;;24.00;27.50;;;;;;2251628;61;20386;-57
2023/01/09 03:31:13;0.00;0.00;0.62;0.00;0.00;0.62;2.57;0.90;;;23.90;27.40;;;;;;2251741;61;20398;-58
2023/01/09 03:33:58;0.00;0.00;0.62;0.00;0.00;0.62;1.80;1.03;;;23.90;27.50;;;;;;2251527;61;20413;-61
2023/01/09 03:36:44;0.00;0.00;0.62;0.00;0.00;0.62;1.63;1.03;;;23.90;27.40;;;;;;2251956;61;20768;-58
2023/01/09 03:39:29;0.00;0.00;0.62;0.00;0.00;0.62;1.40;0.80;;;23.80;27.40;;;;;;2251425;61;20443;-63
2023/01/09 03:42:14;0.00;0.00;0.62;0.00;0.00;0.62;1.30;0.70;;;23.80;27.40;;;;;;2251533;61;20398;-61
2023/01/09 03:44:58;0.00;0.00;0.62;0.00;0.00;0.62;1.50;0.90;;;23.80;27.40;;;;;;2251858;61;20465;-61
2023/01/09 03:47:43;0.00;0.00;0.62;0.00;0.00;0.62;1.53;0.97;;;23.70;27.40;;;;;;2251248;61;20358;-58
2023/01/09 03:50:27;0.00;0.00;0.62;0.00;0.00;0.62;1.40;0.70;;;23.70;27.40;;;;;;2251845;61;20371;-58
2023/01/09 03:53:14;0.00;0.00;0.62;0.00;0.00;0.62;2.03;1.10;;;23.70;27.40;;;;;;2251146;61;20445;-57
2023/01/09 03:55:58;0.00;0.00;0.62;0.00;0.00;0.62;1.60;1.00;;;23.70;27.40;;;;;;2251482;61;20414;-56
2023/01/09 03:58:43;0.00;0.00;0.62;0.00;0.00;0.62;1.30;0.73;;;23.60;27.40;;;;;;2252183;61;20699;-54
2023/01/09 04:01:28;0.00;0.00;0.62;0.00;0.00;0.62;1.40;0.90;;;23.60;27.40;;;;;;2251692;61;20378;-60
2023/01/09 04:04:13;0.00;0.00;0.62;0.00;0.00;0.62;1.30;0.80;;;23.60;27.40;;;;;;2251302;61;20467;-60
2023/01/09 04:06:58;0.00;0.00;0.62;0.00;0.00;0.62;1.50;0.93;;;23.60;27.40;;;;;;2252109;61;20447;-54
2023/01/09 04:09:44;0.00;0.00;0.62;0.00;0.00;0.62;1.70;0.80;;;23.50;27.40;;;;;;2251322;61;20930;-60
2023/01/09 04:12:28;0.00;0.00;0.62;0.00;0.00;0.62;1.43;0.90;;;23.50;27.50;;;;;;2251067;61;20395;-58
2023/01/09 04:15:13;0.00;0.00;0.62;0.00;0.00;0.62;1.30;0.70;;;23.50;27.50;;;;;;2251791;61;20978;-58
2023/01/09 04:17:58;0.00;0.00;0.62;0.00;0.00;0.62;1.50;0.70;;;23.50;27.50;;;;;;2251778;61;20359;-61
2023/01/09 04:20:46;0.00;0.00;0.62;0.00;0.00;0.62;1.37;0.80;;;23.50;27.50;;;;;;2251505;61;20981;-58
2023/01/09 04:23:31;0.00;0.00;0.62;0.00;0.00;0.62;1.63;0.80;;;23.50;27.50;;;;;;2251412;61;20358;-57
2023/01/09 04:26:17;0.00;0.00;0.62;0.00;0.00;0.62;1.50;0.93;;;23.50;27.50;;;;;;2251253;61;20414;-56
2023/01/09 04:29:02;0.00;0.00;0.62;0.00;0.00;0.62;1.60;0.80;;;23.50;27.50;;;;;;2251435;61;20387;-58
2023/01/09 04:31:47;0.00;0.00;0.62;0.00;0.00;0.62;1.50;0.70;;;23.50;27.60;;;;;;2251112;61;20418;-59
2023/01/09 04:34:31;0.00;0.00;0.62;0.00;0.00;0.62;1.40;0.70;;;23.50;27.60;;;;;;2251489;61;20683;-57
2023/01/09 04:37:16;0.00;0.00;0.62;0.00;0.00;0.62;1.60;0.80;;;23.50;27.60;;;;;;2251575;61;20829;-60
2023/01/09 04:40:03;0.00;0.00;0.62;0.00;0.00;0.62;2.00;0.90;;;23.40;27.50;;;;;;2251769;61;20354;-58
2023/01/09 04:42:50;0.00;0.00;0.62;0.00;0.00;0.62;1.60;0.90;;;23.40;27.60;;;;;;2251130;61;20409;-55
2023/01/09 04:45:34;0.00;0.00;0.62;0.00;0.00;0.62;1.40;0.60;;;23.50;27.60;;;;;;2251370;61;20366;-60
2023/01/09 04:48:19;0.00;0.00;0.62;0.00;0.00;0.62;1.20;0.60;;;23.40;27.50;;;;;;2251273;61;20374;-58
2023/01/09 04:51:04;0.00;0.00;0.62;0.00;0.00;0.62;1.40;0.80;;;23.40;27.60;;;;;;2251674;61;20359;-59
2023/01/09 04:53:49;0.00;0.00;0.62;0.00;0.00;0.62;1.30;0.80;;;23.40;27.50;;;;;;2250703;61;20366;-58
2023/01/09 04:56:35;0.00;0.00;0.62;0.00;0.00;0.62;1.40;0.80;;;23.40;27.50;;;;;;2251523;61;20366;-58
2023/01/09 04:59:21;0.00;0.00;0.62;0.00;0.00;0.62;1.40;0.73;;;23.40;27.60;;;;;;2251755;61;20358;-59
2023/01/09 05:02:06;0.00;0.00;0.62;0.00;0.00;0.62;1.50;0.70;;;23.40;27.50;;;;;;2251099;61;20456;-58
2023/01/09 05:04:51;0.00;0.00;0.62;0.00;0.00;0.62;1.60;0.87;;;23.40;27.50;;;;;;2251402;61;20410;-59
2023/01/09 05:07:36;0.00;0.00;0.62;0.00;0.00;0.62;1.30;0.70;;;23.30;27.40;;;;;;2251568;61;20371;-60
2023/01/09 05:10:20;0.00;0.00;0.62;0.00;0.00;0.62;1.20;0.60;;;23.30;27.40;;;;;;2251019;61;20367;-58
2023/01/09 05:13:05;0.00;0.00;0.62;0.00;0.00;0.62;1.30;0.70;;;23.30;27.40;;;;;;2251565;61;20939;-55
2023/01/09 05:15:51;0.00;0.00;0.62;0.00;0.00;0.62;1.40;0.70;;;23.30;27.40;;;;;;2251312;61;20386;-58
2023/01/09 05:18:35;0.00;0.00;0.62;0.00;0.00;0.62;1.30;0.67;;;23.30;27.40;;;;;;2251544;61;20449;-59
2023/01/09 05:21:20;0.00;0.00;0.62;0.00;0.00;0.62;1.40;0.80;;;23.20;27.40;;;;;;2251812;61;20382;-59
2023/01/09 05:24:05;0.00;0.00;0.62;0.00;0.00;0.62;1.20;0.60;;;23.20;27.30;;;;;;2251216;61;20762;-56
2023/01/09 05:26:50;0.00;0.00;0.62;0.00;0.00;0.62;1.30;0.70;;;23.20;27.40;;;;;;2251315;61;20479;-55
2023/01/09 05:29:35;0.00;0.00;0.62;0.00;0.00;0.62;2.07;1.10;;;23.20;27.40;;;;;;2251380;61;20734;-60
2023/01/09 05:32:21;0.00;0.00;0.62;0.00;0.00;0.62;1.50;0.90;;;23.10;27.30;;;;;;2251203;61;20490;-58
2023/01/09 05:35:07;0.00;0.00;0.62;0.00;0.00;0.62;1.80;0.80;;;23.10;27.30;;;;;;2251712;61;20902;-58
2023/01/09 05:37:52;0.00;0.00;0.62;0.00;0.00;0.62;1.30;0.70;;;23.10;27.20;;;;;;2251266;61;20410;-56
2023/01/09 05:40:37;0.00;0.00;0.62;0.00;0.00;0.62;1.60;0.70;;;23.00;27.20;;;;;;2251210;61;20410;-58
2023/01/09 05:43:22;0.00;0.00;0.62;0.00;0.00;0.62;1.30;0.70;;;23.00;27.20;;;;;;2251377;61;20419;-60
2023/01/09 05:46:07;0.00;0.00;0.62;0.00;0.00;0.62;1.30;0.60;;;23.00;27.20;;;;;;2250864;61;20362;-57
2023/01/09 05:48:53;0.00;0.00;0.62;0.00;0.00;0.62;1.50;0.77;;;22.90;27.60;;;;;;2251113;61;20486;-57
2023/01/09 05:51:38;0.00;0.00;0.62;0.00;0.00;0.62;2.23;0.70;;;22.90;27.20;;;;;;2251242;61;20390;-60
2023/01/09 05:54:22;0.00;0.00;0.62;0.00;0.00;0.62;1.27;0.67;;;22.90;27.20;;;;;;2250864;61;20359;-55
2023/01/09 05:57:07;0.00;0.00;0.62;0.00;0.00;0.62;4.40;1.00;;;22.90;27.10;;;;;;2251613;61;20438;-58
2023/01/09 05:59:52;0.00;0.00;0.62;0.00;0.00;0.62;1.60;0.70;;;22.80;27.00;;;;;;2251028;61;20350;-61
2023/01/09 06:02:37;0.00;0.00;0.62;0.00;0.00;0.62;1.30;0.70;;;22.80;27.10;;;;;;2250990;61;20419;-58
2023/01/09 06:05:23;0.00;0.00;0.62;0.00;0.00;0.62;2.73;0.80;;;22.70;27.00;;;;;;2251476;61;20401;-59
2023/01/09 06:08:07;0.00;0.00;0.62;0.00;0.00;0.62;1.90;0.80;;;22.70;27.10;;;;;;2250614;61;20521;-60
2023/01/09 06:10:52;0.00;0.00;0.62;0.00;0.00;0.62;1.20;0.60;;;22.70;27.10;;;;;;2250921;61;20367;-61
2023/01/09 06:13:36;0.00;0.00;0.62;0.00;0.00;0.62;1.30;0.80;;;22.70;27.10;;;;;;2251390;61;20367;-61
2023/01/09 06:16:21;0.00;0.00;0.62;0.00;0.00;0.62;1.30;0.70;;;22.60;27.10;;;;;;2251123;61;20363;-62
2023/01/09 06:19:06;0.00;0.00;0.62;0.00;0.00;0.62;1.30;0.60;;;22.60;27.20;;;;;;2250744;61;20422;-61
2023/01/09 06:21:52;0.00;0.00;0.62;0.00;0.00;0.62;1.40;0.83;;;22.60;27.20;;;;;;2250823;61;20477;-62
2023/01/09 06:24:37;0.00;0.00;0.62;0.00;0.00;0.62;1.60;0.80;;;22.60;27.20;;;;;;2250765;61;20413;-62
2023/01/09 06:27:21;0.00;0.00;0.62;0.00;0.00;0.62;1.40;0.80;;;22.50;27.20;;;;;;2251445;61;20960;-61
2023/01/09 06:30:08;0.00;0.00;0.62;0.00;0.00;0.62;1.30;0.70;;;22.50;27.20;;;;;;2250476;61;20433;-62
2023/01/09 06:32:53;0.00;0.00;0.62;0.00;0.00;0.62;1.60;0.80;;;22.50;27.20;;;;;;2250894;61;20437;-62
2023/01/09 06:35:37;0.00;0.00;0.62;0.00;0.00;0.62;1.30;0.70;;;22.50;27.20;;;;;;2251505;61;20378;-62
2023/01/09 06:38:23;0.00;0.00;0.62;0.00;0.00;0.62;1.20;0.60;;;22.50;27.20;;;;;;2251883;61;20357;-62
2023/01/09 06:41:08;0.00;0.00;0.62;0.00;0.00;0.62;1.40;0.80;;;22.40;27.20;;;;;;2251403;61;20435;-65
2023/01/09 06:43:53;0.00;0.00;0.62;0.00;0.00;0.62;2.47;0.80;;;22.40;27.10;;;;;;2251286;61;20462;-61
2023/01/09 06:46:38;0.00;0.00;0.62;0.00;0.00;0.62;1.30;0.73;;;22.40;27.20;;;;;;2251643;61;20702;-62
2023/01/09 06:49:23;0.00;0.00;0.62;0.00;0.00;0.62;1.30;0.80;;;22.40;27.20;;;;;;2251721;61;20442;-61
2023/01/09 06:52:08;0.00;0.00;0.62;0.00;0.00;0.62;1.77;0.80;;;22.40;27.20;;;;;;2251357;61;20391;-62
2023/01/09 06:54:54;0.00;0.00;0.62;0.00;0.00;0.62;1.40;0.80;;;22.40;27.20;;;;;;2251622;61;20403;-62
2023/01/09 06:57:39;0.00;0.00;0.62;0.00;0.00;0.62;1.60;0.80;;;22.30;27.10;;;;;;2251882;61;20383;-62
2023/01/09 07:00:24;0.00;0.00;0.62;0.00;0.00;0.62;1.60;0.87;;;22.30;27.10;;;;;;2251454;61;20363;-62
2023/01/09 07:03:10;0.00;0.00;0.62;0.00;0.00;0.62;1.60;0.83;;;22.30;27.10;;;;;;2251254;61;20422;-61
2023/01/09 07:05:55;0.00;0.00;0.62;0.00;0.00;0.62;1.63;1.03;;;22.30;27.10;;;;;;2251350;61;20370;-61
2023/01/09 07:08:40;0.00;0.00;0.62;0.00;0.00;0.62;1.93;0.70;;;22.30;27.10;;;;;;2251601;61;20934;-62
2023/01/09 07:11:26;0.00;0.00;0.62;0.00;0.00;0.62;2.30;1.03;;;22.30;27.00;;;;;;2251113;61;20389;-62
2023/01/09 07:14:11;0.00;0.00;0.62;0.00;0.00;0.62;1.40;0.83;;;22.20;27.00;;;;;;2251162;61;20454;-62
2023/01/09 07:16:55;0.00;0.00;0.62;0.00;0.00;0.62;1.90;1.20;;;22.20;27.00;;;;;;2251418;61;20965;-62
2023/01/09 07:19:40;0.00;0.00;0.62;0.00;0.00;0.62;2.03;1.13;;;22.20;27.00;;;;;;2251862;61;20362;-61
2023/01/09 07:22:25;0.00;0.00;0.62;0.00;0.00;0.62;2.00;1.00;;;22.10;26.90;;;;;;2251247;61;20437;-61
2023/01/09 07:25:10;0.00;0.00;0.62;0.00;0.00;0.62;1.50;0.90;;;22.10;26.90;;;;;;2251239;61;20894;-61
2023/01/09 07:27:56;0.00;0.00;0.62;0.00;0.00;0.62;1.70;1.30;;;22.10;26.90;;;;;;2251364;61;20406;-62
2023/01/09 07:30:41;0.00;0.00;0.62;0.00;0.00;0.62;2.77;1.47;;;22.00;26.80;;;;;;2251306;61;20899;-62
2023/01/09 07:33:26;0.00;0.00;0.62;0.00;0.00;0.62;1.80;1.10;;;22.00;27.30;;;;;;2251685;61;20375;-63
2023/01/09 07:36:10;0.00;0.00;0.62;0.00;0.00;0.62;2.53;1.30;;;22.00;26.80;;;;;;2251663;61;20375;-60
2023/01/09 07:38:55;0.00;0.00;0.62;0.00;0.00;0.62;2.47;1.10;;;21.90;26.70;;;;;;2251619;61;20358;-62
2023/01/09 07:41:40;0.00;0.00;0.62;0.00;0.00;0.62;2.17;1.20;;;21.90;26.70;;;;;;2252043;61;20390;-63
2023/01/09 07:44:29;0.00;0.00;0.62;0.00;0.00;0.62;2.43;1.10;;;21.90;26.80;;;;;;2251030;61;20363;-58
2023/01/09 07:47:13;0.00;0.00;0.62;0.00;0.00;0.62;4.23;1.13;;;21.80;26.80;;;;;;2251475;61;20406;-64
2023/01/09 07:49:58;0.00;0.00;0.62;0.00;0.00;0.62;2.60;1.43;;;21.80;26.90;;;;;;2251367;61;20474;-63
2023/01/09 07:52:45;0.00;0.00;0.62;0.00;0.00;0.62;1.50;1.00;;;21.80;26.90;;;;;;2251565;61;20914;-63
2023/01/09 07:55:30;0.00;0.00;0.62;0.00;0.00;0.62;3.00;1.50;;;21.70;26.90;;;;;;2251813;61;20479;-57
2023/01/09 07:58:14;0.00;0.00;0.62;0.00;0.00;0.62;2.03;1.40;;;21.70;26.90;;;;;;2251337;61;20367;-61
2023/01/09 08:01:01;0.00;0.00;0.62;0.00;0.00;0.62;2.07;1.13;;;21.70;26.90;;;;;;2251345;61;20820;-58
2023/01/09 08:03:46;0.00;0.00;0.62;0.00;0.00;0.62;4.07;1.60;;;21.70;26.80;;;;;;2251975;61;20397;-52
2023/01/09 08:06:31;0.00;0.00;0.62;0.00;0.00;0.62;3.73;1.60;;;21.70;26.80;;;;;;2250900;61;20402;-56
2023/01/09 08:09:16;0.00;0.00;0.62;0.00;0.00;0.62;4.90;1.97;;;21.70;26.70;;;;;;2250974;61;20394;-60
2023/01/09 08:12:02;0.00;0.00;0.62;0.00;0.00;0.62;2.10;1.70;;;21.60;26.70;;;;;;2251612;61;20919;-57
2023/01/09 08:14:47;0.00;0.00;0.62;0.00;0.00;0.62;2.70;1.70;;;21.60;26.70;;;;;;2250266;61;20370;-56
2023/01/09 08:17:34;0.00;0.00;0.62;0.00;0.00;0.62;2.80;2.00;;;21.60;26.70;;;;;;2251142;61;20422;-58
2023/01/09 08:20:19;0.00;0.00;0.62;0.00;0.00;0.62;2.60;1.67;;;21.50;26.70;;;;;;2251209;61;20363;-56
2023/01/09 08:23:04;0.00;0.00;0.62;0.00;0.00;0.62;2.77;1.57;;;21.50;26.70;;;;;;2250989;61;20382;-57
2023/01/09 08:25:48;0.00;0.00;0.62;0.00;0.00;0.62;2.40;2.13;;;21.50;26.70;;;;;;2251847;61;20365;-57
2023/01/09 08:28:33;0.00;0.00;0.62;0.00;0.00;0.62;3.20;1.80;;;21.50;26.70;;;;;;2250907;61;20791;-62
2023/01/09 08:31:17;0.00;0.00;0.62;0.00;0.00;0.62;2.90;2.10;;;21.50;26.80;;;;;;2251340;61;20463;-57
2023/01/09 08:34:03;0.00;0.00;0.62;0.00;0.00;0.62;3.60;2.33;;;21.40;26.70;;;;;;2251118;61;20417;-56
2023/01/09 08:36:48;0.00;0.00;0.62;0.00;0.00;0.62;2.10;1.90;;;21.40;26.80;;;;;;2251321;61;20429;-62
2023/01/09 08:39:34;0.00;0.00;0.62;0.00;0.00;0.62;3.40;2.10;;;21.40;26.80;;;;;;2251491;61;20392;-52
2023/01/09 08:48:27;0.00;0.00;0.62;0.00;0.00;0.62;2.83;2.13;;;21.40;26.90;;;;;;2251454;61;20390;-57
2023/01/09 08:51:13;0.00;0.00;0.62;0.00;0.00;0.62;4.10;2.10;;;21.40;26.90;;;;;;2250683;61;20386;-57
2023/01/09 08:53:57;0.00;0.00;0.62;0.00;0.00;0.62;3.10;2.07;;;21.40;26.90;;;;;;2250878;61;20720;-53
2023/01/09 08:56:42;0.00;0.00;0.62;0.00;0.00;0.62;2.23;1.67;;;21.40;26.90;;;;;;2252832;61;20455;-56
2023/01/09 08:59:27;0.00;0.00;0.62;0.00;0.00;0.62;2.63;1.60;;;21.40;26.90;;;;;;2252991;61;20867;-58
2023/01/09 09:02:11;0.00;0.00;0.62;0.00;0.00;0.62;2.30;1.90;;;21.40;27.00;;;;;;2252861;61;20391;-56
2023/01/09 09:04:56;0.00;0.00;0.62;0.00;0.00;0.62;2.27;1.90;;;21.50;27.00;;;;;;2251684;61;20459;-53
2023/01/09 09:07:42;0.00;0.00;0.62;0.00;0.00;0.62;5.27;2.10;;;21.50;27.10;;;;;;2251216;61;20779;-54
2023/01/09 09:10:28;0.00;0.00;0.62;0.00;0.00;0.62;3.87;1.40;;;21.50;27.10;;;;;;2252181;61;20422;-60
2023/01/09 09:13:13;0.00;0.00;0.62;0.00;0.00;0.62;2.47;1.97;;;21.60;27.20;;;;;;2250379;61;20478;-61
2023/01/09 09:15:58;0.00;0.00;0.62;0.00;0.00;0.62;2.33;1.60;;;21.60;27.10;;;;;;2251003;61;20363;-61
2023/01/09 09:18:43;0.00;0.00;0.62;0.00;0.00;0.62;4.17;1.87;;;21.60;27.20;;;;;;2254685;61;20408;-57
2023/01/09 09:21:28;0.00;0.00;0.62;0.00;0.00;0.62;3.00;1.97;;;21.60;27.10;;;;;;2255339;61;20397;-54
2023/01/09 09:24:14;0.00;0.00;0.62;0.00;0.00;0.62;2.60;1.70;;;21.60;27.10;;;;;;2255825;61;20894;-57
2023/01/09 09:26:59;0.00;0.00;0.62;0.00;0.00;0.62;2.60;1.97;;;21.70;27.20;;;;;;2255612;61;20533;-58
2023/01/09 09:29:44;0.00;0.00;0.62;0.00;0.00;0.62;3.50;1.80;;;21.70;27.20;;;;;;2255432;61;20436;-60
2023/01/09 09:32:31;0.00;0.00;0.62;0.00;0.00;0.62;2.33;1.57;;;21.70;27.10;;;;;;2255507;61;20386;-55
2023/01/09 09:35:17;0.00;0.00;0.62;0.00;0.00;0.62;2.53;1.77;;;21.70;27.10;;;;;;2254782;61;20791;-55
2023/01/09 09:38:04;0.00;0.00;0.62;0.00;0.00;0.62;3.40;1.90;;;21.70;27.00;;;;;;2255394;61;20441;-59
2023/01/09 09:44:55;0.00;0.00;0.62;0.00;0.00;0.62;2.17;1.30;;;21.70;27.00;;;;;;2255027;61;20424;-62
2023/01/09 09:47:49;0.00;0.00;0.62;0.00;0.00;0.62;2.80;1.47;;;21.70;27.00;;;;;;2255441;61;20870;-61
2023/01/09 09:51:00;0.00;0.00;0.62;0.00;0.00;0.62;2.50;1.60;;;21.70;27.00;;;;;;2255050;61;20361;-59
2023/01/09 09:53:53;0.00;0.00;0.62;0.00;0.00;0.62;1.70;1.17;;;21.70;27.00;;;;;;2255201;61;20390;-59
2023/01/09 09:56:46;0.00;0.00;0.62;0.00;0.00;0.62;2.77;1.40;;;21.70;27.00;;;;;;2261821;61;20394;-60
2023/01/09 09:59:35;0.00;0.00;0.62;0.00;0.00;0.62;1.97;1.30;;;21.70;27.00;;;;;;2250899;61;20434;-63
2023/01/09 10:02:28;0.00;0.00;0.62;0.00;0.00;0.62;2.10;1.43;;;21.80;27.10;;;;;;2250177;61;20548;-67
2023/01/09 10:05:20;0.00;0.00;0.62;0.00;0.00;0.62;1.80;1.13;;;21.70;27.00;;;;;;2250511;61;20460;-60
2023/01/09 10:08:12;0.00;0.00;0.62;0.00;0.00;0.62;2.00;1.20;;;21.80;27.00;;;;;;2251121;61;20481;-64
2023/01/09 10:10:58;0.00;0.00;0.62;0.00;0.00;0.62;4.40;1.70;;;21.80;26.90;;;;;;2251877;61;20409;-53
2023/01/09 10:17:23;0.00;0.00;0.62;0.00;0.00;0.62;2.63;1.17;;;21.80;26.90;;;;;;2254692;61;20889;-64
2023/01/09 10:20:36;0.00;0.00;0.62;0.00;0.00;0.62;3.90;1.10;;;21.80;26.90;;;;;;2250804;61;20370;-61
2023/01/09 10:23:48;0.00;0.00;0.62;0.00;0.00;0.62;1.50;0.87;;;21.80;27.00;;;;;;2251019;61;20367;-61
2023/01/09 10:26:51;0.00;0.00;0.62;0.00;0.00;0.62;1.50;0.90;;;21.80;27.00;;;;;;2250283;61;20375;-68
2023/01/09 10:29:58;0.00;0.00;0.62;0.00;0.00;0.62;2.83;1.30;;;21.80;27.00;;;;;;2251044;61;20390;-64
2023/01/09 10:32:55;0.00;0.00;0.62;0.00;0.00;0.62;2.40;1.40;;;21.80;27.00;;;;;;2251266;61;20962;-60
2023/01/09 10:36:13;0.00;0.00;0.62;0.00;0.00;0.62;2.40;1.30;;;21.80;27.00;;;;;;2250480;61;20378;-58
2023/01/09 10:39:03;0.00;0.00;0.62;0.00;0.00;0.62;2.53;1.30;;;21.80;27.00;;;;;;2253457;61;20390;-57
2023/01/09 10:41:56;0.00;0.00;0.62;0.00;0.00;0.62;2.40;1.13;;;21.80;26.90;;;;;;2251080;61;20406;-64
2023/01/09 10:44:49;0.00;0.00;0.62;0.00;0.00;0.62;3.07;1.30;;;21.90;26.90;;;;;;2251602;61;20427;-55
2023/01/09 10:47:39;0.00;0.00;0.62;0.00;0.00;0.62;1.80;1.00;;;21.90;26.90;;;;;;2251947;61;20383;-65
2023/01/09 10:50:32;0.00;0.00;0.62;0.00;0.00;0.62;1.50;0.90;;;21.90;26.80;;;;;;2255421;61;20479;-55
2023/01/09 10:53:21;0.00;0.00;0.62;0.00;0.00;0.62;1.90;1.17;;;21.90;26.80;;;;;;2251010;61;20440;-62
2023/01/09 10:56:14;0.00;0.00;0.62;0.00;0.00;0.62;2.13;1.50;;;21.90;26.80;;;;;;2249996;61;20418;-65
2023/01/09 10:58:59;0.00;0.00;0.62;0.00;0.00;0.62;1.97;1.10;;;21.90;26.80;;;;;;2250597;61;20363;-63
2023/01/09 11:01:45;0.00;0.00;0.62;0.00;0.00;0.62;2.97;1.30;;;21.90;26.80;;;;;;2250927;61;20390;-59
2023/01/09 11:04:38;0.00;0.00;0.62;0.00;0.00;0.62;2.07;1.03;;;21.90;26.90;;;;;;2250467;61;20466;-63
2023/01/09 11:07:27;0.00;0.00;0.62;0.00;0.00;0.62;2.07;0.93;;;21.90;26.90;;;;;;2250792;61;20398;-65
2023/01/09 11:10:14;0.00;0.00;0.62;0.00;0.00;0.62;2.00;1.00;;;21.90;26.90;;;;;;2250339;61;20482;-60
2023/01/09 11:13:13;0.00;0.00;0.62;0.00;0.00;0.62;2.03;1.30;;;21.90;26.90;;;;;;2250276;61;20450;-62
2023/01/09 11:16:04;0.00;0.00;0.62;0.00;0.00;0.62;1.90;1.13;;;21.90;26.90;;;;;;2249348;61;20962;-61
2023/01/09 11:18:54;0.00;0.00;0.62;0.00;0.00;0.62;2.10;1.00;;;22.00;26.90;;;;;;2289842;58;20367;-58